Arenapolis, Brazil
Current Conditions -  °F | °C
As of 9:40 PM on Monday 24 Nov 2014 (Local Time) from SBCY Reporting Station
Broken Clouds Broken Clouds  
Wind Chill: 84°   Ceiling: 10000
Heat Index: 90°   Visibility: 6mi
Dew Point: 72°   Wind: 17mph
Humidity: 66%   Direction: 240°WSW
Pressure: 29.85"   Gusts: NA
Location:  14.45°S, 56.85°W
Report Text: SBCY 250040Z 24015KT 9999 SCT020 FEW025TCU BKN100 29/22 Q1011
Loading
Personal Weather Stations






























Interactive Weather Map New forecast layout! Learn more

10-Day Weather Forecast

Advertisements
Track Severe Weather on mobile